Time;durP1;ratioP1;P1;durP2;ratioP2;P2;SDS_P1;SDS_P2;PMS_P1;PMS_P2;Temp;Humidity;BMP_temperature;BMP_pressure;BME280_temperature;BME280_humidity;BME280_pressure;Samples;Min_cycle;Max_cycle;Signal;HPM_P1;HPM_P2
2023/04/20 00:02:21;;;;;;;6.20;4.37;;;15.30;93.50;;;;;;5043367;28;20242;-76
2023/04/20 00:04:50;;;;;;;5.03;3.57;;;15.20;93.50;;;;;;5048595;28;20188;-77
2023/04/20 00:07:20;;;;;;;7.23;4.27;;;15.20;93.40;;;;;;5039200;28;20248;-75
2023/04/20 00:09:48;;;;;;;5.83;3.90;;;15.20;93.40;;;;;;5044234;28;20245;-75
2023/04/20 00:12:17;;;;;;;7.93;4.30;;;15.20;93.40;;;;;;5036335;28;20611;-75
2023/04/20 00:14:46;;;;;;;7.57;4.20;;;15.20;93.30;;;;;;5037285;28;20226;-76
2023/04/20 00:17:23;;;;;;;5.23;3.37;;;15.20;93.30;;;;;;5066610;28;20317;-75
2023/04/20 00:19:52;;;;;;;9.63;4.07;;;15.20;93.30;;;;;;5089210;28;20213;-76
2023/04/20 00:22:20;;;;;;;7.03;4.03;;;15.20;93.20;;;;;;5088729;28;20185;-76
2023/04/20 00:24:48;;;;;;;7.93;4.40;;;15.20;93.20;;;;;;5092002;28;20221;-76
2023/04/20 00:27:17;;;;;;;9.57;4.73;;;15.20;93.20;;;;;;5084719;28;20643;-76
2023/04/20 00:29:46;;;;;;;5.60;3.40;;;15.20;93.20;;;;;;5087778;28;20201;-76
2023/04/20 00:32:14;;;;;;;9.83;4.97;;;15.20;93.10;;;;;;5090279;28;20198;-76
2023/04/20 00:34:43;;;;;;;9.67;4.27;;;15.20;93.10;;;;;;5089560;28;20194;-76
2023/04/20 00:37:11;;;;;;;8.37;4.67;;;15.20;93.10;;;;;;5082081;28;20191;-76
2023/04/20 00:39:40;;;;;;;7.27;3.63;;;15.20;93.10;;;;;;5090402;28;20235;-76
2023/04/20 00:42:09;;;;;;;5.10;3.20;;;15.20;93.10;;;;;;5091086;28;20651;-77
2023/04/20 00:44:37;;;;;;;8.87;4.73;;;15.20;93.00;;;;;;5091184;28;20213;-76
2023/04/20 00:47:07;;;;;;;5.53;4.17;;;15.10;93.10;;;;;;5091622;28;20250;-76
2023/04/20 00:49:35;;;;;;;9.37;4.57;;;15.10;93.10;;;;;;5089787;28;20583;-76
2023/04/20 00:52:04;;;;;;;9.37;4.53;;;15.10;93.10;;;;;;5092748;28;20193;-75
2023/04/20 00:54:33;;;;;;;8.17;3.73;;;15.10;93.00;;;;;;5092030;28;20194;-76
2023/04/20 00:57:01;;;;;;;4.50;3.37;;;15.00;93.10;;;;;;5090031;28;20243;-76
2023/04/20 00:59:29;;;;;;;7.67;3.83;;;15.00;93.00;;;;;;5089304;28;20198;-76
2023/04/20 01:01:58;;;;;;;7.60;4.87;;;15.00;93.00;;;;;;5090585;28;20226;-76
2023/04/20 01:04:29;;;;;;;8.80;4.03;;;15.00;93.00;;;;;;5091462;28;20645;-76
2023/04/20 01:06:58;;;;;;;8.33;4.53;;;14.90;93.30;;;;;;5090518;28;20551;-76
2023/04/20 01:09:26;;;;;;;8.20;4.43;;;14.90;93.00;;;;;;5083227;28;20194;-76
2023/04/20 01:11:54;;;;;;;8.13;4.07;;;14.90;92.90;;;;;;5091813;28;20240;-76
2023/04/20 01:14:23;;;;;;;7.77;3.93;;;14.90;93.00;;;;;;5086670;28;20680;-76
2023/04/20 01:16:51;;;;;;;7.27;4.50;;;14.80;92.90;;;;;;5086494;28;20217;-76
2023/04/20 01:19:20;;;;;;;6.67;3.20;;;14.80;92.90;;;;;;5085228;28;21040;-76
2023/04/20 01:21:50;;;;;;;5.50;3.77;;;14.80;92.80;;;;;;5087938;28;20190;-76
2023/04/20 01:24:20;;;;;;;5.30;2.90;;;14.80;92.80;;;;;;5085073;28;20222;-76
2023/04/20 01:26:48;;;;;;;7.50;3.50;;;14.80;92.80;;;;;;5092380;28;20198;-76
2023/04/20 01:29:16;;;;;;;7.63;4.07;;;14.80;92.80;;;;;;5089762;28;20200;-76
2023/04/20 01:31:45;;;;;;;7.70;4.17;;;14.80;92.70;;;;;;5090195;28;20197;-76
2023/04/20 01:34:14;;;;;;;5.03;2.80;;;14.90;92.70;;;;;;5088244;28;20565;-76
2023/04/20 01:36:42;;;;;;;6.87;3.37;;;14.80;92.60;;;;;;5092050;28;20550;-76
2023/04/20 01:39:11;;;;;;;5.97;3.53;;;14.80;92.50;;;;;;5093282;28;20193;-76
2023/04/20 01:41:40;;;;;;;6.67;3.80;;;14.80;92.50;;;;;;5083987;28;20190;-76
2023/04/20 01:44:09;;;;;;;6.93;3.57;;;14.80;92.50;;;;;;5088095;28;20663;-77
2023/04/20 01:46:38;;;;;;;8.33;4.30;;;14.80;92.50;;;;;;5090259;28;20216;-76
2023/04/20 01:49:07;;;;;;;5.47;3.43;;;14.80;92.80;;;;;;5093830;28;20182;-76
2023/04/20 01:51:35;;;;;;;8.23;3.50;;;14.70;92.40;;;;;;5089433;28;20194;-76
2023/04/20 01:54:04;;;;;;;8.33;2.90;;;14.70;92.40;;;;;;5092427;28;20550;-76
2023/04/20 01:56:32;;;;;;;7.13;3.73;;;14.70;92.40;;;;;;5092179;28;20258;-76
2023/04/20 01:59:02;;;;;;;4.57;2.93;;;14.70;92.40;;;;;;5090205;28;20208;-76
2023/04/20 02:01:31;;;;;;;6.03;4.10;;;14.70;92.40;;;;;;5089377;28;20254;-76
2023/04/20 02:03:59;;;;;;;7.40;4.13;;;14.60;92.30;;;;;;5084214;28;20214;-76
2023/04/20 02:06:27;;;;;;;7.40;3.37;;;14.60;92.30;;;;;;5090906;28;20298;-76
2023/04/20 02:08:56;;;;;;;9.43;4.20;;;14.60;92.30;;;;;;5090315;28;20656;-76
2023/04/20 02:11:25;;;;;;;8.73;4.30;;;14.60;92.30;;;;;;5088191;28;20199;-76
2023/04/20 02:13:53;;;;;;;7.03;4.57;;;14.60;92.30;;;;;;5089562;28;20191;-76
2023/04/20 02:16:23;;;;;;;8.33;4.77;;;14.50;92.30;;;;;;5085011;28;20248;-76
2023/04/20 02:18:53;;;;;;;11.33;3.60;;;14.50;92.20;;;;;;5090172;28;20615;-76
2023/04/20 02:21:22;;;;;;;8.67;3.90;;;14.50;92.30;;;;;;5091154;28;20198;-75
2023/04/20 02:23:51;;;;;;;4.90;3.30;;;14.50;92.30;;;;;;5086117;28;20213;-76
2023/04/20 02:26:19;;;;;;;6.60;3.30;;;14.40;92.30;;;;;;5084321;28;20202;-76
2023/04/20 02:28:47;;;;;;;8.43;3.87;;;14.40;92.30;;;;;;5085828;28;20606;-76
2023/04/20 02:31:16;;;;;;;6.07;3.20;;;14.40;92.30;;;;;;5089824;28;20247;-76
2023/04/20 02:33:46;;;;;;;4.23;2.70;;;14.40;92.30;;;;;;5084577;28;20189;-77
2023/04/20 02:36:15;;;;;;;11.07;3.30;;;14.40;92.30;;;;;;5086878;28;20198;-75
2023/04/20 02:38:43;;;;;;;8.70;4.23;;;14.30;92.30;;;;;;5089242;28;20266;-76
2023/04/20 02:41:11;;;;;;;7.73;4.93;;;14.40;92.40;;;;;;5085455;28;20194;-76
2023/04/20 02:43:40;;;;;;;7.90;3.90;;;14.30;92.70;;;;;;5085106;28;20190;-76
2023/04/20 02:46:08;;;;;;;8.57;4.53;;;14.30;92.30;;;;;;5081629;28;20260;-76
2023/04/20 02:48:36;;;;;;;7.40;4.10;;;14.30;92.30;;;;;;5087774;28;20221;-76
2023/04/20 02:51:06;;;;;;;5.57;3.57;;;14.30;92.30;;;;;;5091256;28;20195;-76
2023/04/20 02:53:35;;;;;;;4.77;2.97;;;14.20;92.30;;;;;;5092907;28;20201;-76
2023/04/20 02:56:03;;;;;;;6.53;4.20;;;14.20;92.30;;;;;;5092643;28;20194;-76
2023/04/20 02:58:31;;;;;;;4.40;3.07;;;14.20;92.30;;;;;;5093388;28;20227;-75
2023/04/20 03:01:00;;;;;;;7.77;3.33;;;14.20;92.30;;;;;;5092637;28;20186;-76
2023/04/20 03:03:29;;;;;;;7.43;3.70;;;14.10;92.30;;;;;;5090361;28;20676;-76
2023/04/20 03:05:58;;;;;;;9.33;4.57;;;14.10;92.30;;;;;;5091513;28;20217;-76
2023/04/20 03:08:27;;;;;;;8.80;5.40;;;14.10;92.30;;;;;;5093302;28;20599;-76
2023/04/20 03:10:56;;;;;;;6.80;3.73;;;14.00;92.30;;;;;;5089314;28;20190;-76
2023/04/20 03:13:24;;;;;;;7.47;4.67;;;14.00;92.30;;;;;;5085691;28;20216;-76
2023/04/20 03:15:53;;;;;;;4.20;2.87;;;14.00;92.60;;;;;;5085903;28;20650;-76
2023/04/20 03:18:21;;;;;;;5.67;4.27;;;14.00;92.70;;;;;;5082806;28;20631;-76
2023/04/20 03:20:49;;;;;;;6.73;4.77;;;13.90;92.60;;;;;;5083024;28;20189;-76
2023/04/20 03:23:18;;;;;;;9.27;4.47;;;13.90;92.70;;;;;;5078872;28;20291;-76
2023/04/20 03:25:47;;;;;;;8.77;3.93;;;14.00;92.70;;;;;;5084186;28;20275;-76
2023/04/20 03:28:16;;;;;;;6.33;3.23;;;13.90;92.70;;;;;;5087212;28;20204;-76
2023/04/20 03:30:44;;;;;;;8.70;3.87;;;14.00;92.80;;;;;;5084524;28;20284;-77
2023/04/20 03:33:13;;;;;;;6.60;3.97;;;14.00;92.80;;;;;;5089218;28;20298;-76
2023/04/20 03:35:41;;;;;;;5.33;3.23;;;14.00;92.70;;;;;;5082649;28;20194;-75
2023/04/20 03:38:10;;;;;;;6.13;3.87;;;14.00;92.80;;;;;;5085421;28;20200;-76
2023/04/20 03:40:38;;;;;;;9.60;5.13;;;14.00;92.80;;;;;;5091632;28;20190;-76
2023/04/20 03:43:10;;;;;;;8.43;4.17;;;14.00;92.80;;;;;;5088166;28;20239;-78
2023/04/20 03:45:38;;;;;;;7.93;3.20;;;14.00;92.90;;;;;;5090187;28;20256;-76
2023/04/20 03:48:06;;;;;;;5.13;3.43;;;14.00;92.90;;;;;;5085583;28;20225;-76
2023/04/20 03:50:35;;;;;;;6.90;3.50;;;14.00;92.90;;;;;;5085473;28;20188;-76
2023/04/20 03:53:03;;;;;;;5.43;3.20;;;14.00;92.90;;;;;;5084900;28;20647;-76
2023/04/20 03:55:31;;;;;;;6.97;4.00;;;14.00;92.90;;;;;;5086514;28;20248;-76
2023/04/20 03:58:00;;;;;;;11.27;3.57;;;14.00;93.00;;;;;;5089800;28;20595;-75
2023/04/20 04:00:29;;;;;;;5.63;3.33;;;14.00;93.00;;;;;;5088160;28;20190;-76
2023/04/20 04:02:58;;;;;;;9.43;3.13;;;14.00;93.00;;;;;;5089440;28;20202;-75
2023/04/20 04:05:26;;;;;;;7.83;4.03;;;14.00;93.10;;;;;;5089635;28;20221;-76
2023/04/20 04:07:55;;;;;;;7.13;3.67;;;14.00;93.10;;;;;;5089576;28;20186;-76
2023/04/20 04:10:23;;;;;;;11.30;3.93;;;14.00;93.20;;;;;;5092007;28;20189;-76
2023/04/20 04:12:52;;;;;;;5.73;3.63;;;14.00;93.30;;;;;;5096729;28;20216;-75
2023/04/20 04:15:20;;;;;;;6.43;3.90;;;14.00;93.30;;;;;;5090322;28;20777;-76
2023/04/20 04:17:50;;;;;;;8.03;3.90;;;14.00;93.30;;;;;;5081080;28;20222;-76
2023/04/20 04:20:18;;;;;;;6.57;3.97;;;14.00;93.30;;;;;;5088293;28;20275;-76
2023/04/20 04:22:47;;;;;;;8.50;3.67;;;14.00;93.40;;;;;;5090195;28;20198;-76
2023/04/20 04:25:16;;;;;;;5.50;3.27;;;14.00;93.40;;;;;;5087041;28;20266;-76
2023/04/20 04:27:45;;;;;;;7.33;3.73;;;14.00;93.40;;;;;;5092097;28;20543;-75
2023/04/20 04:30:14;;;;;;;6.47;4.30;;;14.10;93.40;;;;;;5089655;28;20201;-75
2023/04/20 04:32:43;;;;;;;7.73;3.60;;;14.10;93.50;;;;;;5084105;28;20190;-76
2023/04/20 04:35:13;;;;;;;5.50;4.00;;;14.10;93.50;;;;;;5085834;28;20193;-76
2023/04/20 04:37:42;;;;;;;16.37;4.57;;;14.10;93.60;;;;;;5083664;28;20187;-75
2023/04/20 04:40:11;;;;;;;10.63;4.73;;;14.10;93.80;;;;;;5089308;28;20206;-76
2023/04/20 04:42:39;;;;;;;8.90;4.37;;;14.10;93.70;;;;;;5085916;28;20195;-75
2023/04/20 04:45:09;;;;;;;7.93;4.00;;;14.10;93.70;;;;;;5084053;28;20221;-77
2023/04/20 04:47:39;;;;;;;5.37;3.37;;;14.10;93.80;;;;;;5088508;28;20658;-75
2023/04/20 04:50:09;;;;;;;7.13;4.13;;;14.10;93.90;;;;;;5086966;28;20194;-76
2023/04/20 04:52:39;;;;;;;7.73;4.33;;;14.10;94.00;;;;;;5084375;28;20704;-76
2023/04/20 04:55:08;;;;;;;8.10;4.17;;;14.10;94.00;;;;;;5091430;28;20229;-76
2023/04/20 04:57:37;;;;;;;7.70;3.27;;;14.10;94.10;;;;;;5090582;28;20263;-75
2023/04/20 05:00:08;;;;;;;7.37;3.83;;;14.20;94.10;;;;;;5093289;28;20281;-75
2023/04/20 05:02:36;;;;;;;8.70;4.07;;;14.20;94.40;;;;;;5089135;28;20642;-75
2023/04/20 05:05:07;;;;;;;5.00;3.50;;;14.20;94.10;;;;;;5092022;28;20189;-75
2023/04/20 05:07:38;;;;;;;6.60;3.83;;;14.30;94.30;;;;;;5093928;28;20217;-76
2023/04/20 05:10:08;;;;;;;6.80;3.67;;;14.40;94.20;;;;;;5090334;28;20190;-76
2023/04/20 05:12:37;;;;;;;7.07;4.63;;;14.30;94.30;;;;;;5092299;28;20197;-75
2023/04/20 05:15:07;;;;;;;9.23;4.53;;;14.40;94.30;;;;;;5087744;28;20634;-75
2023/04/20 05:17:35;;;;;;;6.83;3.97;;;14.40;94.30;;;;;;5087937;28;20218;-75
2023/04/20 05:20:05;;;;;;;8.17;4.83;;;14.50;94.20;;;;;;5086679;28;20198;-75
2023/04/20 05:22:34;;;;;;;7.83;4.43;;;14.50;94.20;;;;;;5084512;28;20182;-75
2023/04/20 05:25:03;;;;;;;9.57;4.10;;;14.60;94.30;;;;;;5095085;28;20186;-75
2023/04/20 05:27:33;;;;;;;11.30;4.40;;;14.60;94.20;;;;;;5094883;28;20685;-76
2023/04/20 05:30:01;;;;;;;8.68;4.82;;;14.60;94.20;;;;;;5082995;28;20434;-76
2023/04/20 05:32:47;;;;;;;11.20;4.60;;;14.70;94.20;;;;;;5087747;28;20217;-75
2023/04/20 05:35:19;;;;;;;6.87;4.87;;;14.80;94.30;;;;;;5094339;28;20192;-75
2023/04/20 05:37:47;;;;;;;7.73;5.03;;;14.80;94.50;;;;;;5091212;28;20254;-76
2023/04/20 05:40:17;;;;;;;8.47;4.87;;;14.80;94.40;;;;;;5092039;28;20190;-76
2023/04/20 05:42:45;;;;;;;10.03;4.80;;;14.80;94.80;;;;;;5089993;28;20190;-76
2023/04/20 05:45:13;;;;;;;10.70;5.40;;;14.90;94.40;;;;;;5090527;28;20227;-75
2023/04/20 05:47:42;;;;;;;12.70;6.57;;;14.90;94.40;;;;;;5091684;28;20229;-75
2023/04/20 05:50:10;;;;;;;14.10;6.83;;;15.00;94.30;;;;;;5091713;28;20194;-75
2023/04/20 05:52:39;;;;;;;12.23;5.97;;;15.00;94.30;;;;;;5090502;28;20189;-77
2023/04/20 05:55:08;;;;;;;9.10;4.77;;;15.00;94.30;;;;;;5089608;28;20240;-76
2023/04/20 05:57:41;;;;;;;10.57;6.10;;;15.10;94.30;;;;;;5094196;28;20239;-75
2023/04/20 06:00:11;;;;;;;9.63;5.60;;;15.10;94.30;;;;;;5086630;28;20595;-76
2023/04/20 06:02:40;;;;;;;11.73;6.57;;;15.10;94.30;;;;;;5093273;28;20201;-76
2023/04/20 06:05:10;;;;;;;11.57;5.00;;;15.10;94.30;;;;;;5093781;28;20555;-76
2023/04/20 06:07:39;;;;;;;9.97;5.97;;;15.10;94.10;;;;;;5089282;28;20222;-76
2023/04/20 06:10:08;;;;;;;10.63;5.77;;;15.10;94.00;;;;;;5092828;28;20236;-76
2023/04/20 06:12:38;;;;;;;10.47;5.87;;;15.10;94.00;;;;;;5092838;28;20186;-76
2023/04/20 06:15:09;;;;;;;12.97;6.70;;;15.10;93.90;;;;;;5095191;28;20194;-78
2023/04/20 06:17:39;;;;;;;12.17;5.80;;;15.10;93.80;;;;;;5090772;28;20324;-76
2023/04/20 06:20:09;;;;;;;8.60;5.33;;;15.10;93.90;;;;;;5094500;28;20204;-76
2023/04/20 06:22:43;;;;;;;11.97;6.03;;;15.10;93.80;;;;;;5090968;28;20195;-76
2023/04/20 06:25:12;;;;;;;10.10;6.30;;;15.10;93.90;;;;;;5091240;28;20608;-76
2023/04/20 06:27:42;;;;;;;12.80;6.17;;;15.10;94.00;;;;;;5088807;28;20256;-77
2023/04/20 06:30:11;;;;;;;9.97;6.20;;;15.10;94.00;;;;;;5089584;28;20208;-77
2023/04/20 06:32:39;;;;;;;12.03;6.63;;;15.20;94.10;;;;;;5094734;28;20190;-78
2023/04/20 06:35:08;;;;;;;12.23;7.07;;;15.20;94.10;;;;;;5087364;28;20569;-77
2023/04/20 06:37:37;;;;;;;14.37;7.57;;;15.20;94.00;;;;;;5089644;28;20182;-79
2023/04/20 06:40:08;;;;;;;12.43;7.47;;;15.20;94.00;;;;;;5089944;28;20201;-78
2023/04/20 06:42:36;;;;;;;12.80;6.50;;;15.20;93.90;;;;;;5091712;28;20235;-77
2023/04/20 06:45:08;;;;;;;16.03;6.67;;;15.30;94.00;;;;;;5088539;28;20707;-77
2023/04/20 06:47:36;;;;;;;13.70;6.13;;;15.30;93.90;;;;;;5089359;28;20209;-76
2023/04/20 06:50:08;;;;;;;9.23;5.97;;;15.30;93.90;;;;;;5090665;28;20186;-76
2023/04/20 06:52:37;;;;;;;13.07;7.13;;;15.30;93.80;;;;;;5092744;28;20193;-77
2023/04/20 06:55:06;;;;;;;11.80;6.43;;;15.20;93.80;;;;;;5084530;28;20194;-75
2023/04/20 06:57:36;;;;;;;10.57;6.87;;;15.30;93.80;;;;;;5089279;28;20638;-76
2023/04/20 07:00:08;;;;;;;9.03;5.83;;;15.20;93.80;;;;;;5088992;28;20243;-76
2023/04/20 07:02:44;;;;;;;10.93;6.20;;;15.30;93.80;;;;;;5085150;28;20181;-76
2023/04/20 07:05:12;;;;;;;13.13;6.93;;;15.30;93.80;;;;;;5084178;28;20190;-76
2023/04/20 07:07:41;;;;;;;12.77;6.77;;;15.30;93.90;;;;;;5083999;28;20276;-77
2023/04/20 07:10:18;;;;;;;13.70;6.00;;;15.30;93.90;;;;;;5089229;28;20186;-76
2023/04/20 07:12:47;;;;;;;13.90;7.50;;;15.40;94.00;;;;;;5087483;28;20200;-76
2023/04/20 07:15:17;;;;;;;14.53;6.77;;;15.30;93.90;;;;;;5087474;28;20247;-74
2023/04/20 07:17:45;;;;;;;9.80;6.37;;;15.40;94.00;;;;;;5088775;28;20753;-75
2023/04/20 07:20:20;;;;;;;12.00;6.57;;;15.40;94.00;;;;;;5091343;28;20193;-76
2023/04/20 07:22:48;;;;;;;12.97;7.00;;;15.50;94.10;;;;;;5090063;28;20234;-75
2023/04/20 07:25:17;;;;;;;13.90;7.30;;;15.50;94.10;;;;;;5092593;28;20576;-75
2023/04/20 07:27:47;;;;;;;12.00;7.47;;;15.60;94.10;;;;;;5092038;28;20267;-75
2023/04/20 07:30:17;;;;;;;12.83;8.27;;;15.60;94.10;;;;;;5091391;28;20193;-75
2023/04/20 07:32:45;;;;;;;11.57;7.30;;;15.70;94.30;;;;;;5089147;28;20186;-76
2023/04/20 07:35:14;;;;;;;15.70;7.70;;;15.70;94.30;;;;;;5090042;28;20239;-75
2023/04/20 07:37:42;;;;;;;11.37;7.00;;;15.80;94.30;;;;;;5092033;28;20208;-75
2023/04/20 07:40:11;;;;;;;11.87;6.70;;;15.90;94.30;;;;;;5091490;28;20591;-76
2023/04/20 07:42:40;;;;;;;11.73;7.17;;;15.90;94.30;;;;;;5090272;28;20209;-76
2023/04/20 07:45:10;;;;;;;11.20;6.60;;;16.00;94.20;;;;;;5084908;28;20219;-76
2023/04/20 07:47:42;;;;;;;10.13;6.37;;;16.10;94.10;;;;;;5088382;28;20221;-76
2023/04/20 07:50:11;;;;;;;11.70;6.93;;;16.20;94.10;;;;;;5080986;28;20204;-75
2023/04/20 07:52:39;;;;;;;9.03;6.13;;;16.20;94.10;;;;;;5091642;28;20247;-74
2023/04/20 07:55:10;;;;;;;14.67;7.10;;;16.20;93.70;;;;;;5090205;28;20251;-75
2023/04/20 07:57:39;;;;;;;10.97;6.20;;;16.30;93.50;;;;;;5088709;28;20198;-76
2023/04/20 08:00:08;;;;;;;9.10;5.37;;;16.30;93.60;;;;;;5087720;28;20244;-76
2023/04/20 08:02:37;;;;;;;10.00;5.43;;;16.40;93.70;;;;;;5054019;28;20194;-76
2023/04/20 08:05:08;;;;;;;13.50;6.70;;;16.50;93.70;;;;;;5088942;28;20194;-75
2023/04/20 08:07:37;;;;;;;10.10;6.23;;;16.50;93.50;;;;;;5089292;28;20224;-75
2023/04/20 08:10:06;;;;;;;10.03;6.13;;;16.60;93.50;;;;;;5091206;28;20193;-76
2023/04/20 08:12:35;;;;;;;12.63;7.63;;;16.60;93.60;;;;;;5088258;28;20189;-76
2023/04/20 08:15:05;;;;;;;12.33;6.23;;;16.70;93.60;;;;;;5089575;28;20190;-75
2023/04/20 08:17:34;;;;;;;10.33;6.70;;;16.80;93.60;;;;;;5091226;28;20315;-75
2023/04/20 08:20:04;;;;;;;13.90;7.50;;;16.80;93.60;;;;;;5090867;28;20213;-75
2023/04/20 08:22:34;;;;;;;10.57;6.07;;;16.90;93.50;;;;;;5089791;28;20637;-75
2023/04/20 08:25:03;;;;;;;12.33;7.00;;;17.00;93.50;;;;;;5089030;28;20186;-75
2023/04/20 08:27:32;;;;;;;11.63;6.73;;;17.00;93.40;;;;;;5090894;28;20275;-76
2023/04/20 08:30:03;;;;;;;14.03;7.73;;;17.10;93.30;;;;;;5088359;28;20202;-75
2023/04/20 08:32:31;;;;;;;13.13;7.40;;;17.10;92.90;;;;;;5089919;28;20662;-75
2023/04/20 08:35:00;;;;;;;10.60;7.47;;;17.10;92.80;;;;;;5093095;28;20189;-75
2023/04/20 08:37:28;;;;;;;13.67;6.27;;;17.10;92.80;;;;;;5093817;28;20201;-75
2023/04/20 08:40:01;;;;;;;11.43;6.90;;;17.10;92.80;;;;;;5093640;28;20204;-76
2023/04/20 08:42:30;;;;;;;17.40;7.50;;;17.10;92.70;;;;;;5086519;28;20202;-77
2023/04/20 08:44:59;;;;;;;11.00;6.80;;;17.20;92.50;;;;;;5088273;28;20215;-76
2023/04/20 08:47:29;;;;;;;16.17;7.23;;;17.20;92.50;;;;;;5092763;28;20257;-75
2023/04/20 08:50:00;;;;;;;13.70;7.10;;;17.20;92.60;;;;;;5085103;28;20559;-77
2023/04/20 08:52:28;;;;;;;12.00;6.90;;;17.30;92.80;;;;;;5089202;28;20182;-76
2023/04/20 08:54:56;;;;;;;12.53;7.43;;;17.30;92.70;;;;;;5095090;28;20570;-77
2023/04/20 08:57:26;;;;;;;11.57;6.37;;;17.30;92.70;;;;;;5091551;28;20189;-75
2023/04/20 08:59:56;;;;;;;11.63;6.77;;;17.40;92.80;;;;;;5088775;28;20224;-77
2023/04/20 09:02:27;;;;;;;11.03;7.17;;;17.40;92.50;;;;;;5086978;28;20202;-77
2023/04/20 09:05:03;;;;;;;11.40;6.50;;;17.40;92.30;;;;;;5094241;28;20196;-74
2023/04/20 09:07:32;;;;;;;10.70;5.83;;;17.50;92.40;;;;;;5091269;28;20221;-77
2023/04/20 09:10:01;;;;;;;9.70;6.00;;;17.60;92.40;;;;;;5089602;28;20197;-77
2023/04/20 09:12:41;;;;;;;10.23;6.50;;;17.60;92.20;;;;;;5089782;28;20198;-76
2023/04/20 09:15:10;;;;;;;11.70;5.40;;;17.70;92.10;;;;;;5092973;28;20198;-78
2023/04/20 09:17:39;;;;;;;8.13;4.97;;;17.80;92.00;;;;;;5092645;28;20225;-76
2023/04/20 09:20:10;;;;;;;12.17;5.27;;;17.90;91.80;;;;;;5092774;28;20284;-76
2023/04/20 09:22:39;;;;;;;7.37;4.97;;;18.00;91.60;;;;;;5083525;28;20546;-80
2023/04/20 09:25:14;;;;;;;7.43;5.07;;;18.00;91.40;;;;;;5084101;28;20194;-76
2023/04/20 09:27:54;;;;;;;8.03;4.77;;;18.10;91.20;;;;;;5090197;28;20266;-78
2023/04/20 09:30:23;;;;;;;10.67;5.93;;;18.10;91.20;;;;;;5092611;28;20712;-75
2023/04/20 09:33:01;;;;;;;6.37;4.10;;;18.10;90.90;;;;;;5085860;28;20193;-75
2023/04/20 09:35:30;;;;;;;8.77;4.90;;;18.20;91.20;;;;;;5089463;28;20236;-76
2023/04/20 09:37:59;;;;;;;6.37;3.77;;;18.20;91.10;;;;;;5086774;28;20670;-80
2023/04/20 09:40:28;;;;;;;6.77;4.17;;;18.20;91.00;;;;;;5091659;28;20197;-78
2023/04/20 09:43:03;;;;;;;7.77;4.10;;;18.20;90.90;;;;;;5092660;28;20194;-75
2023/04/20 09:45:31;;;;;;;6.53;3.80;;;18.20;90.90;;;;;;5091558;28;20193;-75
2023/04/20 09:48:00;;;;;;;5.37;3.63;;;18.20;90.50;;;;;;5092690;28;20266;-76
2023/04/20 09:50:30;;;;;;;5.27;3.10;;;18.20;89.90;;;;;;5091816;28;20561;-75
2023/04/20 09:53:16;;;;;;;5.33;2.90;;;18.20;90.00;;;;;;5088123;28;20193;-76
2023/04/20 09:55:46;;;;;;;5.67;2.87;;;18.20;89.30;;;;;;5084824;28;20185;-75
2023/04/20 09:58:21;;;;;;;6.73;3.80;;;18.20;89.90;;;;;;5088239;28;20695;-79
2023/04/20 10:00:50;;;;;;;4.33;2.90;;;18.30;90.10;;;;;;5091789;28;20246;-78
2023/04/20 10:03:20;;;;;;;4.83;2.93;;;18.30;90.20;;;;;;5087928;28;20233;-77
2023/04/20 10:05:49;;;;;;;6.07;3.83;;;18.30;90.30;;;;;;5089203;28;20197;-77
2023/04/20 10:08:20;;;;;;;5.20;3.17;;;18.40;90.30;;;;;;5090808;28;20217;-78
2023/04/20 10:10:50;;;;;;;6.53;2.80;;;18.40;90.40;;;;;;5092437;28;20251;-76
2023/04/20 10:13:22;;;;;;;7.27;2.53;;;18.40;90.40;;;;;;5091822;28;20208;-78
2023/04/20 10:15:50;;;;;;;7.90;2.13;;;18.50;90.30;;;;;;5096244;28;20200;-78
2023/04/20 10:18:21;;;;;;;3.27;1.60;;;18.50;89.40;;;;;;5090056;28;20204;-78
2023/04/20 10:20:51;;;;;;;8.40;2.80;;;18.50;89.10;;;;;;5094259;28;20216;-79
2023/04/20 10:23:20;;;;;;;7.17;2.20;;;18.60;89.30;;;;;;5086643;28;20643;-79
2023/04/20 10:25:59;;;;;;;5.70;2.60;;;18.60;89.10;;;;;;5087045;28;20194;-79
2023/04/20 10:28:40;;;;;;;9.33;2.77;;;18.50;89.00;;;;;;5090892;28;20704;-79
2023/04/20 10:31:24;;;;;;;5.87;2.80;;;18.60;89.30;;;;;;5089728;28;20653;-78
2023/04/20 10:33:54;;;;;;;3.53;2.40;;;18.50;89.00;;;;;;5083107;28;20197;-78
2023/04/20 10:36:28;;;;;;;12.90;2.87;;;18.60;89.10;;;;;;5088574;28;20280;-77
2023/04/20 10:38:56;;;;;;;14.43;3.57;;;18.60;89.30;;;;;;5088777;28;20193;-77
2023/04/20 10:41:25;;;;;;;12.13;3.17;;;18.60;89.30;;;;;;5086566;28;20204;-76
2023/04/20 10:43:55;;;;;;;7.77;2.63;;;18.60;88.80;;;;;;5088867;28;20247;-77
2023/04/20 10:46:25;;;;;;;4.87;2.53;;;18.50;87.40;;;;;;5089567;28;20198;-77
2023/04/20 10:48:54;;;;;;;3.90;2.40;;;18.50;87.60;;;;;;5088213;28;20224;-78
2023/04/20 10:51:23;;;;;;;5.77;2.73;;;18.50;87.90;;;;;;5085331;28;20201;-76
2023/04/20 10:54:03;;;;;;;5.37;3.13;;;18.50;87.90;;;;;;5082690;28;20198;-77
2023/04/20 10:56:42;;;;;;;5.10;2.40;;;18.50;88.10;;;;;;5086223;28;20204;-76
2023/04/20 10:59:13;;;;;;;4.77;2.90;;;18.50;88.00;;;;;;5091179;28;20204;-76
2023/04/20 11:01:42;;;;;;;3.23;2.23;;;18.50;88.10;;;;;;5082620;28;20615;-76
2023/04/20 11:04:12;;;;;;;4.60;3.20;;;18.50;87.90;;;;;;5082554;28;20737;-76
2023/04/20 11:06:45;;;;;;;5.30;2.37;;;18.40;88.10;;;;;;5085862;28;20202;-77
2023/04/20 11:09:25;;;;;;;7.17;2.40;;;18.50;88.40;;;;;;5083747;28;20268;-77
2023/04/20 11:12:00;;;;;;;4.30;2.60;;;18.40;88.50;;;;;;5085410;28;20193;-75
2023/04/20 11:14:31;;;;;;;5.00;2.47;;;18.40;89.10;;;;;;5085469;28;20188;-77
2023/04/20 11:17:00;;;;;;;6.10;2.87;;;18.50;89.40;;;;;;5082724;28;20229;-76
2023/04/20 11:19:30;;;;;;;2.07;1.50;;;18.40;88.30;;;;;;5088587;28;20238;-76
2023/04/20 11:21:59;;;;;;;2.93;1.73;;;18.50;88.10;;;;;;5081209;28;20236;-77
2023/04/20 11:24:30;;;;;;;5.60;2.37;;;18.50;87.80;;;;;;5080970;28;20631;-76
2023/04/20 11:26:58;;;;;;;4.47;2.20;;;18.60;88.10;;;;;;5086957;28;20190;-76
2023/04/20 11:29:33;;;;;;;4.33;2.00;;;18.60;87.90;;;;;;5080720;28;20290;-76
2023/04/20 11:32:04;;;;;;;3.80;2.03;;;18.70;86.70;;;;;;5078463;28;20198;-77
2023/04/20 11:34:34;;;;;;;2.07;1.30;;;18.70;85.40;;;;;;5085442;28;20196;-76
2023/04/20 11:37:04;;;;;;;3.63;1.33;;;18.70;83.80;;;;;;5088568;28;20712;-76
2023/04/20 11:39:33;;;;;;;5.57;2.07;;;18.80;84.50;;;;;;5087596;28;20205;-76
2023/04/20 11:42:01;;;;;;;2.63;1.40;;;18.70;83.00;;;;;;5077066;28;20198;-77
2023/04/20 11:44:31;;;;;;;3.17;1.57;;;18.80;83.90;;;;;;5084970;28;20291;-77
2023/04/20 11:47:00;;;;;;;3.53;1.60;;;18.90;83.60;;;;;;5089084;28;20189;-76
2023/04/20 11:49:29;;;;;;;2.50;1.60;;;18.90;83.40;;;;;;5089868;28;20229;-77
2023/04/20 11:51:58;;;;;;;4.87;1.87;;;18.90;83.30;;;;;;5086578;28;20738;-77
2023/04/20 11:54:28;;;;;;;3.20;1.50;;;18.90;82.90;;;;;;5088669;28;20198;-77
2023/04/20 11:56:57;;;;;;;2.30;1.27;;;18.90;83.00;;;;;;5082567;28;20558;-76
2023/04/20 11:59:26;;;;;;;2.37;1.30;;;19.00;83.40;;;;;;5088360;28;20200;-77
2023/04/20 12:01:56;;;;;;;1.53;1.10;;;19.10;83.60;;;;;;5086331;28;20196;-76
2023/04/20 12:04:24;;;;;;;2.83;1.20;;;19.20;83.40;;;;;;5083327;28;20646;-78
2023/04/20 12:06:53;;;;;;;1.90;1.00;;;19.20;82.50;;;;;;5084641;28;20205;-77
2023/04/20 12:09:21;;;;;;;2.57;1.17;;;19.30;82.40;;;;;;5087262;28;20332;-77
2023/04/20 12:11:50;;;;;;;2.50;1.20;;;19.40;82.30;;;;;;5087817;28;20194;-76
2023/04/20 12:14:18;;;;;;;2.13;1.30;;;19.40;82.20;;;;;;5089582;28;20193;-77
2023/04/20 12:16:47;;;;;;;2.07;1.13;;;19.50;82.50;;;;;;5079480;28;20214;-77
2023/04/20 12:19:18;;;;;;;1.75;1.20;;;19.50;80.70;;;;;;5062087;28;20205;-76
2023/04/20 12:21:47;;;;;;;1.80;1.00;;;19.60;80.70;;;;;;5065868;28;20229;-76
2023/04/20 12:24:15;;;;;;;2.05;1.00;;;19.60;80.10;;;;;;5063737;28;20202;-77
2023/04/20 12:26:44;;;;;;;1.93;1.03;;;19.60;78.50;;;;;;5066747;28;20194;-75
2023/04/20 12:29:12;;;;;;;2.10;1.20;;;19.60;79.10;;;;;;5063332;28;20389;-75
2023/04/20 12:31:40;;;;;;;4.50;1.63;;;19.60;78.00;;;;;;5059243;28;21965;-74
2023/04/20 12:34:09;;;;;;;1.35;0.90;;;19.70;77.60;;;;;;5066440;28;20199;-75
2023/04/20 12:36:39;;;;;;;1.70;0.90;;;19.70;77.30;;;;;;5061997;28;20220;-74
2023/04/20 12:39:07;;;;;;;2.03;1.10;;;19.80;77.10;;;;;;5066510;28;20217;-74
2023/04/20 12:41:35;;;;;;;1.05;0.85;;;19.80;75.30;;;;;;5068506;28;20194;-74
2023/04/20 12:44:04;;;;;;;3.50;1.27;;;20.00;75.70;;;;;;5070487;28;20225;-75
2023/04/20 12:46:42;;;;;;;2.58;1.35;;;20.10;76.60;;;;;;5070125;28;20236;-75
2023/04/20 12:49:11;;;;;;;1.83;1.13;;;20.20;76.50;;;;;;5065941;28;20194;-74
2023/04/20 12:51:40;;;;;;;1.75;1.10;;;20.20;72.50;;;;;;5069200;28;20221;-74
2023/04/20 12:54:10;;;;;;;7.15;1.77;;;20.40;74.50;;;;;;5070357;28;20206;-74
2023/04/20 12:56:39;;;;;;;2.15;1.17;;;20.50;74.60;;;;;;5062127;28;20203;-73